Time;durP1;ratioP1;P1;durP2;ratioP2;P2;SDS_P1;SDS_P2;PMS_P1;PMS_P2;Temp;Humidity;BMP_temperature;BMP_pressure;BME280_temperature;BME280_humidity;BME280_pressure;Samples;Min_cycle;Max_cycle;Signal;HPM_P1;HPM_P2
2021/12/22 00:00:23;;;;;;;4.53;2.73;;;-4.50;99.90;;;;;;5104260;28;20470;-63
2021/12/22 00:02:52;;;;;;;4.27;2.20;;;-4.50;99.90;;;;;;5102977;28;20490;-63
2021/12/22 00:05:23;;;;;;;5.43;2.50;;;-4.60;99.90;;;;;;5107290;28;20455;-63
2021/12/22 00:07:50;;;;;;;7.10;2.60;;;-4.70;99.90;;;;;;5107016;28;20460;-63
2021/12/22 00:10:19;;;;;;;4.90;3.07;;;-4.60;99.90;;;;;;5108207;28;20469;-63
2021/12/22 00:12:46;;;;;;;3.13;2.20;;;-4.50;99.90;;;;;;5107429;28;20446;-63
2021/12/22 00:15:14;;;;;;;4.63;2.93;;;-4.30;99.90;;;;;;5107991;28;20477;-63
2021/12/22 00:17:40;;;;;;;4.47;2.70;;;-4.40;99.90;;;;;;5106914;28;20601;-63
2021/12/22 00:20:11;;;;;;;2.77;2.07;;;-4.50;99.90;;;;;;5107680;28;21004;-63
2021/12/22 00:22:38;;;;;;;6.23;2.43;;;-4.50;99.90;;;;;;5107570;28;20814;-63
2021/12/22 00:25:05;;;;;;;3.73;2.17;;;-4.40;99.90;;;;;;5107001;28;20879;-63
2021/12/22 00:27:32;;;;;;;4.10;1.97;;;-4.40;99.90;;;;;;5107773;28;20521;-63
2021/12/22 00:29:59;;;;;;;3.40;1.70;;;-4.50;99.90;;;;;;5107711;28;20465;-63
2021/12/22 00:32:28;;;;;;;3.40;1.83;;;-4.60;99.90;;;;;;5107282;28;20451;-63
2021/12/22 00:34:56;;;;;;;2.97;2.23;;;-4.70;99.90;;;;;;5106728;28;20462;-63
2021/12/22 00:37:26;;;;;;;4.20;2.37;;;-4.70;99.90;;;;;;5107240;28;20921;-63
2021/12/22 00:39:55;;;;;;;6.93;3.10;;;-4.70;99.90;;;;;;5106780;28;20430;-63
2021/12/22 00:42:24;;;;;;;4.77;2.90;;;-4.70;99.90;;;;;;5107124;28;21044;-63
2021/12/22 00:44:53;;;;;;;5.07;2.33;;;-4.80;99.90;;;;;;5107145;28;20441;-63
2021/12/22 00:47:22;;;;;;;3.90;2.47;;;-4.70;99.90;;;;;;5107182;28;20477;-63
2021/12/22 00:49:49;;;;;;;3.43;2.10;;;-4.60;99.90;;;;;;5106502;28;20520;-63
2021/12/22 00:52:16;;;;;;;4.30;2.50;;;-4.60;99.90;;;;;;5107129;28;20474;-61
2021/12/22 00:54:44;;;;;;;2.67;2.10;;;-4.50;99.90;;;;;;5105810;28;20488;-63
2021/12/22 00:57:11;;;;;;;3.47;2.50;;;-4.60;99.90;;;;;;5107098;28;20477;-63
2021/12/22 00:59:38;;;;;;;5.13;2.77;;;-4.60;99.90;;;;;;5107020;28;20450;-63
2021/12/22 01:02:07;;;;;;;3.97;2.40;;;-4.60;99.90;;;;;;5106631;28;20490;-63
2021/12/22 01:04:34;;;;;;;4.07;2.73;;;-4.70;99.90;;;;;;5106418;28;20506;-63
2021/12/22 01:07:01;;;;;;;4.70;2.70;;;-4.60;99.90;;;;;;5106784;28;20461;-63
2021/12/22 01:09:28;;;;;;;6.17;2.97;;;-4.70;99.90;;;;;;5106253;28;20448;-63
2021/12/22 01:11:57;;;;;;;5.07;2.80;;;-4.60;99.90;;;;;;5106880;28;20477;-63
2021/12/22 01:14:24;;;;;;;4.27;2.93;;;-4.70;99.90;;;;;;5106656;28;20502;-63
2021/12/22 01:16:55;;;;;;;6.00;2.73;;;-4.60;99.90;;;;;;5105377;28;20511;-63
2021/12/22 01:19:28;;;;;;;6.07;2.57;;;-4.60;99.90;;;;;;5106054;28;20446;-63
2021/12/22 01:22:02;;;;;;;4.87;2.43;;;-4.70;99.90;;;;;;5106604;28;20740;-63
2021/12/22 01:24:33;;;;;;;5.10;2.27;;;-4.70;99.90;;;;;;5105251;28;20812;-63
2021/12/22 01:27:07;;;;;;;3.03;2.10;;;-4.70;99.90;;;;;;5106249;28;20450;-63
2021/12/22 01:29:35;;;;;;;4.47;2.33;;;-4.80;99.90;;;;;;5106487;28;20438;-63
2021/12/22 01:32:02;;;;;;;3.47;2.27;;;-4.80;99.90;;;;;;5106131;28;20538;-63
2021/12/22 01:34:30;;;;;;;5.17;2.90;;;-4.90;99.90;;;;;;5105454;28;20489;-63
2021/12/22 01:36:57;;;;;;;5.23;2.00;;;-4.90;99.90;;;;;;5106244;28;20926;-63
2021/12/22 01:39:24;;;;;;;2.83;2.00;;;-4.90;99.90;;;;;;5105543;28;20448;-63
2021/12/22 01:41:53;;;;;;;3.63;1.87;;;-4.80;99.90;;;;;;5105904;28;20509;-63
2021/12/22 01:44:33;;;;;;;3.63;2.13;;;-4.80;99.90;;;;;;5106035;28;20529;-63
2021/12/22 01:49:51;;;;;;;3.60;2.10;;;-4.80;99.90;;;;;;5105543;28;20502;-63
2021/12/22 01:52:20;;;;;;;3.53;2.30;;;-4.80;99.90;;;;;;5106116;28;20470;-63
2021/12/22 01:54:51;;;;;;;3.30;1.90;;;-4.80;99.90;;;;;;5104663;28;20442;-63
2021/12/22 01:57:21;;;;;;;3.17;2.03;;;-4.90;99.90;;;;;;5105762;28;20492;-63
2021/12/22 01:59:50;;;;;;;2.17;1.70;;;-5.00;99.90;;;;;;5105844;28;20451;-63
2021/12/22 02:02:17;;;;;;;3.33;1.93;;;-4.90;99.90;;;;;;5104507;28;20490;-63
2021/12/22 02:04:45;;;;;;;5.77;2.20;;;-5.00;99.90;;;;;;5107326;28;20549;-63
2021/12/22 02:07:12;;;;;;;2.87;1.93;;;-5.00;99.90;;;;;;5110032;27;20453;-63
2021/12/22 02:12:37;;;;;;;3.17;1.97;;;-4.90;99.90;;;;;;5089421;28;20464;-63
2021/12/22 02:15:07;;;;;;;2.57;1.83;;;-4.80;99.90;;;;;;5105693;28;20794;-63
2021/12/22 02:17:35;;;;;;;3.33;1.93;;;-4.80;99.90;;;;;;5105556;28;20445;-63
2021/12/22 02:20:05;;;;;;;3.37;1.97;;;-4.80;99.90;;;;;;5105015;28;20453;-63
2021/12/22 02:22:32;;;;;;;3.47;2.00;;;-4.70;99.90;;;;;;5105414;28;20934;-63
2021/12/22 02:25:04;;;;;;;1.87;1.77;;;-4.80;99.90;;;;;;5104435;28;20932;-63
2021/12/22 02:27:35;;;;;;;1.77;1.40;;;-4.80;99.90;;;;;;5105130;28;20446;-63
2021/12/22 02:30:05;;;;;;;4.23;1.57;;;-4.80;99.90;;;;;;5105429;28;20437;-63
2021/12/22 02:35:27;;;;;;;2.50;1.80;;;-4.90;99.90;;;;;;5099734;28;20498;-63
2021/12/22 02:37:53;;;;;;;5.20;1.87;;;-5.00;99.90;;;;;;5104533;28;20434;-63
2021/12/22 02:40:27;;;;;;;3.23;1.40;;;-5.10;99.90;;;;;;5105452;28;20525;-64
2021/12/22 02:43:04;;;;;;;1.53;1.43;;;-5.00;99.90;;;;;;5104847;28;20458;-63
2021/12/22 02:45:31;;;;;;;2.13;1.63;;;-4.90;99.90;;;;;;5105394;28;20442;-63
2021/12/22 02:47:58;;;;;;;2.17;1.80;;;-4.90;99.90;;;;;;5104321;28;20442;-63
2021/12/22 02:50:27;;;;;;;1.87;1.50;;;-4.90;99.90;;;;;;5105154;28;20549;-63
2021/12/22 02:53:04;;;;;;;2.77;1.70;;;-5.00;99.90;;;;;;5104087;28;20473;-63
2021/12/22 02:55:42;;;;;;;2.87;1.43;;;-5.10;99.90;;;;;;5104884;28;20419;-63
2021/12/22 02:58:11;;;;;;;2.30;1.47;;;-5.10;99.90;;;;;;5104972;28;20477;-63
2021/12/22 03:00:49;;;;;;;2.37;1.40;;;-5.00;99.90;;;;;;5105101;28;20438;-63
2021/12/22 03:03:29;;;;;;;2.67;1.67;;;-5.00;99.90;;;;;;5103915;28;20474;-63
2021/12/22 03:05:59;;;;;;;1.57;1.43;;;-5.00;99.90;;;;;;5105051;28;20479;-63
2021/12/22 03:08:26;;;;;;;2.23;1.33;;;-5.00;99.90;;;;;;5104364;28;20431;-63
2021/12/22 03:10:55;;;;;;;2.27;1.50;;;-5.00;99.90;;;;;;5104875;28;21003;-63
2021/12/22 03:13:22;;;;;;;1.60;1.20;;;-5.00;99.90;;;;;;5104435;28;20453;-63
2021/12/22 03:15:49;;;;;;;2.90;1.30;;;-5.10;99.90;;;;;;5104888;28;20474;-63
2021/12/22 03:18:17;;;;;;;1.63;1.10;;;-5.10;99.90;;;;;;5104262;28;20443;-63
2021/12/22 03:20:47;;;;;;;2.20;1.10;;;-5.00;99.90;;;;;;5104963;28;20454;-63
2021/12/22 03:23:15;;;;;;;3.37;1.30;;;-4.90;99.90;;;;;;5103879;28;20496;-63
2021/12/22 03:25:42;;;;;;;1.23;1.10;;;-4.90;99.90;;;;;;5104574;28;20470;-63
2021/12/22 03:28:09;;;;;;;2.10;1.30;;;-4.90;99.90;;;;;;5104473;28;20478;-63
2021/12/22 03:30:36;;;;;;;1.40;1.30;;;-5.00;99.90;;;;;;5105050;28;20454;-62
2021/12/22 03:33:02;;;;;;;1.43;1.20;;;-5.10;99.90;;;;;;5103615;28;20458;-63
2021/12/22 03:35:30;;;;;;;2.17;1.10;;;-5.20;99.90;;;;;;5104672;28;20437;-63
2021/12/22 03:37:59;;;;;;;1.43;1.07;;;-5.30;99.90;;;;;;5103702;28;20450;-63
2021/12/22 03:40:28;;;;;;;1.80;1.37;;;-5.30;99.90;;;;;;5107952;28;20517;-63
2021/12/22 03:42:55;;;;;;;1.67;1.33;;;-5.30;99.90;;;;;;5107861;28;20876;-63
2021/12/22 03:45:22;;;;;;;1.97;1.30;;;-5.20;99.90;;;;;;5108672;28;20533;-63
2021/12/22 03:47:49;;;;;;;1.43;1.20;;;-5.10;99.90;;;;;;5107870;28;20442;-63
2021/12/22 03:50:17;;;;;;;3.97;1.30;;;-5.10;99.90;;;;;;5108233;28;21011;-63
2021/12/22 03:52:47;;;;;;;1.97;1.10;;;-5.20;99.90;;;;;;5107490;28;20442;-63
2021/12/22 03:55:14;;;;;;;1.60;1.17;;;-5.30;99.90;;;;;;5107959;28;20439;-63
2021/12/22 03:57:42;;;;;;;2.37;1.23;;;-5.40;99.90;;;;;;5108065;28;20453;-63
2021/12/22 04:00:12;;;;;;;1.97;1.37;;;-5.40;99.90;;;;;;5108433;28;20442;-63
2021/12/22 04:02:39;;;;;;;1.73;1.30;;;-5.40;99.90;;;;;;5107366;28;20486;-63
2021/12/22 04:05:07;;;;;;;1.50;1.40;;;-5.30;99.90;;;;;;5107391;28;20525;-63
2021/12/22 04:07:34;;;;;;;1.40;1.23;;;-5.20;99.90;;;;;;5108115;28;20442;-63
2021/12/22 04:10:08;;;;;;;1.67;1.30;;;-5.10;99.90;;;;;;5107443;28;20530;-63
2021/12/22 04:12:35;;;;;;;2.83;1.67;;;-5.10;99.90;;;;;;5107526;28;20951;-63
2021/12/22 04:15:04;;;;;;;3.80;1.80;;;-5.20;99.90;;;;;;5108005;28;20462;-63
2021/12/22 04:17:31;;;;;;;2.80;1.70;;;-5.20;99.90;;;;;;5107879;28;20446;-63
2021/12/22 04:19:58;;;;;;;1.93;1.53;;;-5.20;99.90;;;;;;5107291;28;20518;-63
2021/12/22 04:22:24;;;;;;;3.17;1.50;;;-5.40;99.90;;;;;;5107668;28;20509;-63
2021/12/22 04:24:51;;;;;;;4.93;1.47;;;-5.30;99.90;;;;;;5106597;28;20761;-63
2021/12/22 04:27:18;;;;;;;1.63;1.40;;;-5.30;99.90;;;;;;5107601;28;20522;-63
2021/12/22 04:29:45;;;;;;;1.73;1.27;;;-5.20;99.90;;;;;;5107696;28;20453;-63
2021/12/22 04:32:13;;;;;;;1.77;1.50;;;-5.10;99.90;;;;;;5107530;28;20568;-63
2021/12/22 04:34:40;;;;;;;3.27;1.60;;;-5.20;99.90;;;;;;5106604;28;20474;-62
2021/12/22 04:37:06;;;;;;;1.63;1.37;;;-5.30;99.90;;;;;;5107424;28;20471;-63
2021/12/22 04:39:33;;;;;;;3.13;1.17;;;-5.40;99.90;;;;;;5106654;28;20824;-63
2021/12/22 04:42:00;;;;;;;1.73;1.47;;;-5.40;99.90;;;;;;5106885;28;20513;-63
2021/12/22 04:44:27;;;;;;;3.70;1.87;;;-5.30;99.90;;;;;;5107371;28;20533;-63
2021/12/22 04:46:54;;;;;;;2.20;1.70;;;-5.30;99.90;;;;;;5106765;28;20474;-63
2021/12/22 04:49:22;;;;;;;2.87;1.60;;;-5.40;99.90;;;;;;5106437;28;20453;-63
2021/12/22 04:51:51;;;;;;;3.47;1.80;;;-5.60;99.90;;;;;;5107246;28;20588;-63
2021/12/22 04:54:30;;;;;;;4.03;1.87;;;-5.60;99.90;;;;;;5105713;28;20827;-63
2021/12/22 04:56:58;;;;;;;1.77;1.60;;;-5.60;99.90;;;;;;5106920;28;20450;-63
2021/12/22 04:59:26;;;;;;;2.87;1.47;;;-5.40;99.90;;;;;;5107072;28;20529;-63
2021/12/22 05:01:53;;;;;;;3.67;1.80;;;-5.30;99.90;;;;;;5106745;28;20486;-63
2021/12/22 05:04:20;;;;;;;3.93;1.93;;;-5.20;99.90;;;;;;5106185;28;20481;-63
2021/12/22 05:06:48;;;;;;;4.20;2.10;;;-5.30;99.90;;;;;;5106680;28;20479;-63
2021/12/22 05:09:15;;;;;;;4.73;2.33;;;-5.40;99.90;;;;;;5106306;28;20473;-63
2021/12/22 05:11:41;;;;;;;3.10;2.10;;;-5.50;99.90;;;;;;5106928;28;20518;-63
2021/12/22 05:14:09;;;;;;;5.23;2.70;;;-5.60;99.90;;;;;;5106640;28;20478;-63
2021/12/22 05:16:44;;;;;;;4.47;2.97;;;-5.60;99.90;;;;;;5106401;28;20502;-62
2021/12/22 05:19:14;;;;;;;4.00;2.57;;;-5.60;99.90;;;;;;5106208;28;20450;-63
2021/12/22 05:21:41;;;;;;;7.43;2.73;;;-5.50;99.90;;;;;;5106835;28;20473;-63
2021/12/22 05:24:09;;;;;;;5.50;2.90;;;-5.50;99.90;;;;;;5105001;28;20537;-63
2021/12/22 05:26:37;;;;;;;6.40;3.03;;;-5.50;99.90;;;;;;5105851;28;20480;-61
2021/12/22 05:29:04;;;;;;;7.03;3.07;;;-5.50;99.90;;;;;;5106384;28;20442;-63
2021/12/22 05:31:31;;;;;;;6.40;3.80;;;-5.50;99.90;;;;;;5106297;28;20474;-63
2021/12/22 05:33:58;;;;;;;4.90;3.00;;;-5.40;99.90;;;;;;5105412;28;20474;-63
2021/12/22 05:36:25;;;;;;;8.13;3.83;;;-5.30;99.90;;;;;;5106315;28;20583;-63
2021/12/22 05:38:52;;;;;;;10.23;4.13;;;-5.30;99.90;;;;;;5105363;28;20513;-63
2021/12/22 05:41:20;;;;;;;5.87;3.57;;;-5.40;99.90;;;;;;5106250;28;20466;-63
2021/12/22 05:43:47;;;;;;;8.00;3.83;;;-5.50;99.90;;;;;;5105796;28;20896;-64
2021/12/22 05:46:16;;;;;;;6.50;3.87;;;-5.60;99.90;;;;;;5106157;28;20509;-62
2021/12/22 05:48:44;;;;;;;7.70;3.77;;;-5.70;99.90;;;;;;5105368;28;20454;-63
2021/12/22 05:51:11;;;;;;;9.97;3.93;;;-5.70;99.90;;;;;;5106223;28;20511;-63
2021/12/22 05:53:38;;;;;;;8.00;3.90;;;-5.70;99.90;;;;;;5104666;28;20625;-63
2021/12/22 05:56:05;;;;;;;6.20;3.73;;;-5.60;99.90;;;;;;5106214;28;20474;-63
2021/12/22 05:58:34;;;;;;;8.43;3.60;;;-5.60;99.90;;;;;;5104215;28;20442;-63
2021/12/22 06:01:00;;;;;;;6.67;3.30;;;-5.50;99.90;;;;;;5103929;28;20533;-63
2021/12/22 06:03:27;;;;;;;7.43;3.43;;;-5.40;99.90;;;;;;5101933;28;20545;-62
2021/12/22 06:05:54;;;;;;;6.63;3.47;;;-5.50;99.90;;;;;;5103732;28;20442;-63
2021/12/22 06:08:21;;;;;;;7.37;4.00;;;-5.50;99.90;;;;;;5103008;28;20466;-63
2021/12/22 06:10:48;;;;;;;7.33;3.80;;;-5.60;99.90;;;;;;5104118;28;20541;-63
2021/12/22 06:13:15;;;;;;;7.53;3.30;;;-5.80;99.90;;;;;;5102514;28;20518;-63
2021/12/22 06:15:43;;;;;;;8.73;4.00;;;-5.80;99.90;;;;;;5103648;28;20521;-62
2021/12/22 06:18:10;;;;;;;6.77;3.83;;;-5.70;99.90;;;;;;5102417;28;20858;-62
2021/12/22 06:20:37;;;;;;;8.87;4.23;;;-5.70;99.90;;;;;;5103366;28;20525;-63
2021/12/22 06:23:04;;;;;;;10.10;5.10;;;-5.70;99.90;;;;;;5102341;28;20498;-62
2021/12/22 06:25:31;;;;;;;10.03;4.43;;;-5.70;99.90;;;;;;5102975;28;20466;-62
2021/12/22 06:27:58;;;;;;;6.50;4.10;;;-5.70;99.90;;;;;;5102960;28;20474;-63
2021/12/22 06:30:25;;;;;;;6.37;4.00;;;-5.80;99.90;;;;;;5103270;28;20435;-63
2021/12/22 06:32:53;;;;;;;7.80;4.53;;;-5.80;99.90;;;;;;5102680;28;20470;-63
2021/12/22 06:35:20;;;;;;;3.77;2.87;;;-5.80;99.90;;;;;;5102364;28;20449;-64
2021/12/22 06:37:48;;;;;;;5.30;3.20;;;-5.70;99.90;;;;;;5102428;28;20458;-62
2021/12/22 06:40:15;;;;;;;8.20;4.43;;;-5.80;99.90;;;;;;5103448;28;20907;-61
2021/12/22 06:42:43;;;;;;;6.40;3.83;;;-5.80;99.90;;;;;;5102575;28;20478;-64
2021/12/22 06:45:12;;;;;;;7.63;4.63;;;-5.80;99.90;;;;;;5103510;28;20514;-63
2021/12/22 06:47:39;;;;;;;9.73;4.47;;;-5.70;99.90;;;;;;5100175;28;20474;-62
2021/12/22 06:50:09;;;;;;;6.70;4.53;;;-5.70;99.90;;;;;;5100928;28;20542;-62
2021/12/22 06:52:36;;;;;;;8.40;4.73;;;-5.80;99.90;;;;;;5101706;28;20437;-64
2021/12/22 06:55:04;;;;;;;6.80;4.60;;;-5.90;99.90;;;;;;5101751;28;20431;-62
2021/12/22 06:57:32;;;;;;;6.83;4.37;;;-5.90;99.90;;;;;;5102465;28;20557;-63
2021/12/22 07:00:00;;;;;;;7.70;4.10;;;-5.90;99.90;;;;;;5101990;28;20442;-62
2021/12/22 07:02:27;;;;;;;7.17;4.00;;;-5.90;99.90;;;;;;5100761;28;20992;-62
2021/12/22 07:04:54;;;;;;;7.93;4.00;;;-5.80;99.90;;;;;;5101723;28;20498;-64
2021/12/22 07:07:22;;;;;;;6.40;4.00;;;-5.80;99.90;;;;;;5103460;28;20522;-62
2021/12/22 07:09:49;;;;;;;8.10;4.30;;;-5.90;99.90;;;;;;5101608;28;20527;-64
2021/12/22 07:12:16;;;;;;;7.33;4.17;;;-6.00;99.90;;;;;;5102816;28;20444;-63
2021/12/22 07:14:43;;;;;;;7.30;4.00;;;-6.10;99.90;;;;;;5104622;28;20502;-63
2021/12/22 07:17:10;;;;;;;7.20;3.57;;;-6.00;99.90;;;;;;5108148;28;20450;-63
2021/12/22 07:19:37;;;;;;;7.97;3.90;;;-5.80;99.90;;;;;;5108316;28;20438;-63
2021/12/22 07:22:04;;;;;;;4.97;3.40;;;-5.80;99.90;;;;;;5109085;28;20473;-62
2021/12/22 07:24:32;;;;;;;7.50;4.37;;;-5.80;99.90;;;;;;5107134;28;20916;-63
2021/12/22 07:26:59;;;;;;;10.63;4.80;;;-5.90;99.90;;;;;;5108645;28;20449;-62
2021/12/22 07:29:26;;;;;;;7.27;3.93;;;-5.70;99.90;;;;;;5108578;28;20533;-63
2021/12/22 07:31:53;;;;;;;6.37;3.87;;;-5.70;99.90;;;;;;5108752;28;20450;-63
2021/12/22 07:34:24;;;;;;;6.87;3.77;;;-5.80;99.90;;;;;;5107764;28;20450;-63
2021/12/22 07:36:59;;;;;;;4.53;3.37;;;-5.90;99.90;;;;;;5108558;28;20484;-63
2021/12/22 07:39:26;;;;;;;6.80;4.23;;;-5.70;99.90;;;;;;5107942;28;20504;-63
2021/12/22 07:41:54;;;;;;;8.27;4.73;;;-5.80;99.90;;;;;;5105656;28;20434;-62
2021/12/22 07:44:21;;;;;;;8.33;4.87;;;-5.90;99.90;;;;;;5108063;28;20561;-62
2021/12/22 07:46:48;;;;;;;8.63;4.10;;;-5.90;99.90;;;;;;5108164;28;20438;-62
2021/12/22 07:49:15;;;;;;;6.03;4.13;;;-5.80;99.90;;;;;;5107536;28;20454;-62
2021/12/22 07:51:42;;;;;;;6.67;4.67;;;-5.70;99.90;;;;;;5110288;28;20458;-63
2021/12/22 07:54:08;;;;;;;8.17;4.50;;;-5.70;99.90;;;;;;5106367;28;20433;-63
2021/12/22 07:56:35;;;;;;;6.07;4.17;;;-5.60;99.90;;;;;;5107181;28;20502;-63
2021/12/22 07:59:03;;;;;;;8.03;4.33;;;-5.60;99.90;;;;;;5107005;28;20442;-63
2021/12/22 08:01:32;;;;;;;12.77;7.57;;;-5.60;99.90;;;;;;5106850;28;21227;-62
2021/12/22 08:03:59;;;;;;;10.53;7.03;;;-5.70;99.90;;;;;;5105914;28;20470;-62
2021/12/22 08:06:26;;;;;;;9.10;5.13;;;-5.70;99.90;;;;;;5107447;28;20461;-62
2021/12/22 08:08:53;;;;;;;7.40;4.33;;;-5.70;99.90;;;;;;5106537;28;20473;-63
2021/12/22 08:11:20;;;;;;;7.73;4.50;;;-5.70;99.90;;;;;;5106345;28;20527;-62
2021/12/22 08:13:47;;;;;;;16.03;7.83;;;-5.60;99.90;;;;;;5107003;28;20446;-63
2021/12/22 08:16:15;;;;;;;9.17;5.20;;;-5.70;99.90;;;;;;5107100;28;20534;-62
2021/12/22 08:18:42;;;;;;;11.83;5.60;;;-5.70;99.90;;;;;;5106054;28;20495;-63
2021/12/22 08:21:09;;;;;;;10.10;5.47;;;-5.70;99.90;;;;;;5107473;28;20510;-62
2021/12/22 08:23:36;;;;;;;15.63;9.97;;;-5.60;99.90;;;;;;5106039;28;20480;-62
2021/12/22 08:26:03;;;;;;;10.50;6.43;;;-5.70;99.90;;;;;;5100319;28;20517;-62
2021/12/22 08:28:29;;;;;;;9.67;5.30;;;-5.60;99.90;;;;;;5095035;28;20513;-62
2021/12/22 08:30:56;;;;;;;7.47;5.20;;;-5.50;99.90;;;;;;5096951;28;20455;-62
2021/12/22 08:33:29;;;;;;;9.93;5.10;;;-5.50;99.90;;;;;;5097219;28;20470;-61
2021/12/22 08:38:51;;;;;;;10.93;6.03;;;-5.40;99.90;;;;;;5096599;28;20427;-62
2021/12/22 08:41:18;;;;;;;9.50;6.13;;;-5.40;99.90;;;;;;5099906;28;20476;-62
2021/12/22 08:43:45;;;;;;;11.60;7.33;;;-5.30;99.90;;;;;;5094654;28;20467;-62
2021/12/22 08:46:12;;;;;;;12.83;8.90;;;-5.30;99.90;;;;;;5092264;28;20510;-62
2021/12/22 08:48:40;;;;;;;14.10;8.20;;;-5.20;99.90;;;;;;5085472;28;20451;-62
2021/12/22 08:51:07;;;;;;;15.90;8.97;;;-5.20;99.90;;;;;;5093634;28;20506;-63
2021/12/22 08:53:34;;;;;;;16.30;9.43;;;-5.10;99.90;;;;;;5105356;28;20573;-64
2021/12/22 08:56:01;;;;;;;14.80;10.30;;;-5.10;99.90;;;;;;5106249;28;20522;-63
2021/12/22 08:58:31;;;;;;;16.33;10.10;;;-5.00;99.90;;;;;;5106608;28;20525;-63
2021/12/22 09:00:58;;;;;;;17.50;10.17;;;-4.90;99.90;;;;;;5103943;28;20443;-64
2021/12/22 09:03:25;;;;;;;17.00;9.33;;;-4.80;99.90;;;;;;5105384;28;20501;-64
2021/12/22 09:05:54;;;;;;;16.90;9.90;;;-4.80;99.90;;;;;;5106500;28;20501;-64
2021/12/22 09:08:20;;;;;;;19.30;11.87;;;-4.80;99.90;;;;;;5103016;28;20456;-64
2021/12/22 09:10:47;;;;;;;16.83;11.20;;;-4.80;99.90;;;;;;5106363;28;20542;-65
2021/12/22 09:13:15;;;;;;;20.20;11.50;;;-4.80;99.90;;;;;;5106554;28;20609;-66
2021/12/22 09:15:42;;;;;;;17.20;10.73;;;-4.70;99.90;;;;;;5106780;28;20439;-65
2021/12/22 09:18:09;;;;;;;12.77;7.90;;;-4.70;99.90;;;;;;5105974;28;20442;-64
2021/12/22 09:20:36;;;;;;;11.33;6.77;;;-4.60;99.90;;;;;;5106951;28;20506;-64
2021/12/22 09:23:04;;;;;;;10.43;6.33;;;-4.60;99.90;;;;;;5105853;28;20589;-65
2021/12/22 09:25:33;;;;;;;131.73;50.60;;;-4.60;99.90;;;;;;5105871;28;20462;-66
2021/12/22 09:28:00;;;;;;;594.97;312.20;;;-4.50;99.90;;;;;;5102603;28;20485;-65
2021/12/22 09:30:27;;;;;;;90.23;46.27;;;-4.50;99.90;;;;;;5105944;28;20486;-64
2021/12/22 09:32:55;;;;;;;33.00;17.83;;;-4.40;99.90;;;;;;5115332;28;20529;-65
2021/12/22 09:35:22;;;;;;;9.67;6.00;;;-4.40;99.90;;;;;;5114785;28;20493;-65
2021/12/22 09:37:49;;;;;;;6.33;4.30;;;-4.30;99.90;;;;;;5115967;28;20982;-65
2021/12/22 09:40:17;;;;;;;6.50;4.30;;;-4.30;99.90;;;;;;5120687;28;21002;-65
2021/12/22 09:42:44;;;;;;;8.83;4.67;;;-4.30;99.90;;;;;;5114332;28;20522;-65
2021/12/22 09:45:11;;;;;;;6.40;3.97;;;-4.20;99.90;;;;;;5116922;28;20502;-65
2021/12/22 09:47:52;;;;;;;6.47;4.37;;;-4.20;99.90;;;;;;5110225;28;20537;-65
2021/12/22 09:50:35;;;;;;;5.80;4.00;;;-4.20;99.90;;;;;;5102796;28;20438;-65
2021/12/22 09:53:02;;;;;;;4.73;3.87;;;-4.10;99.90;;;;;;5100165;28;20466;-64
2021/12/22 09:55:33;;;;;;;8.77;3.80;;;-4.00;99.90;;;;;;5090271;28;20444;-64
2021/12/22 09:58:00;;;;;;;5.90;4.03;;;-3.90;99.90;;;;;;5089748;28;20466;-65
2021/12/22 10:00:27;;;;;;;5.70;3.67;;;-3.80;99.90;;;;;;5086224;28;20512;-65
2021/12/22 10:02:54;;;;;;;7.83;4.00;;;-3.60;99.90;;;;;;5084481;28;20539;-65
2021/12/22 10:05:21;;;;;;;8.57;4.13;;;-3.60;99.90;;;;;;5084959;28;20451;-66
2021/12/22 10:08:05;;;;;;;6.43;3.53;;;-3.60;99.90;;;;;;5084540;28;20872;-64
2021/12/22 10:10:34;;;;;;;37.87;19.63;;;-3.60;99.90;;;;;;5084930;28;20447;-66
2021/12/22 10:13:09;;;;;;;36.63;18.23;;;-3.60;99.90;;;;;;5084893;28;20538;-66
2021/12/22 10:15:36;;;;;;;19.27;9.23;;;-3.60;99.90;;;;;;5085228;28;20489;-66
2021/12/22 10:18:11;;;;;;;9.63;4.40;;;-3.50;99.90;;;;;;5097719;28;20531;-66
2021/12/22 10:20:39;;;;;;;8.20;4.60;;;-3.40;99.90;;;;;;5104012;28;21470;-65
2021/12/22 10:23:21;;;;;;;5.30;3.63;;;-3.30;99.90;;;;;;5102734;28;20604;-66
2021/12/22 10:25:56;;;;;;;8.27;4.37;;;-3.20;99.90;;;;;;5103923;28;20836;-66
2021/12/22 10:28:24;;;;;;;8.77;4.93;;;-3.20;99.90;;;;;;5103333;28;20474;-63
2021/12/22 10:30:55;;;;;;;8.43;4.90;;;-3.10;99.90;;;;;;5103706;28;20533;-63
2021/12/22 10:33:25;;;;;;;8.30;4.80;;;-3.00;99.90;;;;;;5102611;28;20865;-64
2021/12/22 10:35:54;;;;;;;7.63;4.77;;;-3.00;99.90;;;;;;5103444;28;20553;-64
2021/12/22 10:38:23;;;;;;;9.37;4.60;;;-2.90;99.90;;;;;;5096494;28;20467;-64
2021/12/22 10:40:53;;;;;;;10.27;4.63;;;-2.80;99.90;;;;;;5101886;28;20447;-64
2021/12/22 10:43:22;;;;;;;9.60;5.37;;;-2.80;99.90;;;;;;5102722;28;20531;-64
2021/12/22 10:45:52;;;;;;;8.90;4.87;;;-2.70;99.90;;;;;;5104478;28;20991;-65
2021/12/22 10:51:09;;;;;;;7.73;3.87;;;-2.60;99.90;;;;;;5105178;28;20413;-66
2021/12/22 10:53:44;;;;;;;9.97;4.67;;;-2.50;99.90;;;;;;5103726;28;20446;-65
2021/12/22 10:56:22;;;;;;;9.27;4.87;;;-2.50;99.90;;;;;;5105111;28;20477;-65
2021/12/22 10:59:04;;;;;;;13.53;4.93;;;-2.40;99.90;;;;;;5104439;28;20723;-66
2021/12/22 11:01:31;;;;;;;8.30;3.50;;;-2.40;99.90;;;;;;5104929;28;20466;-65
2021/12/22 11:04:03;;;;;;;5.80;3.40;;;-2.40;99.90;;;;;;5104337;28;20502;-66
2021/12/22 11:06:32;;;;;;;8.13;3.87;;;-2.40;99.90;;;;;;5105178;28;20458;-66
2021/12/22 11:09:01;;;;;;;6.17;4.27;;;-2.40;99.90;;;;;;5103893;28;20446;-65
2021/12/22 11:11:36;;;;;;;9.17;3.93;;;-2.40;99.90;;;;;;5105159;28;20451;-65
2021/12/22 11:14:09;;;;;;;8.80;4.30;;;-2.30;99.90;;;;;;5104704;28;20456;-65
2021/12/22 11:16:57;;;;;;;6.93;3.30;;;-2.30;99.90;;;;;;5105023;28;20473;-65
2021/12/22 11:19:25;;;;;;;5.73;3.37;;;-2.20;99.90;;;;;;5103052;28;20515;-65
2021/12/22 11:22:02;;;;;;;6.53;3.90;;;-2.20;99.90;;;;;;5104409;28;20496;-66
2021/12/22 11:24:29;;;;;;;6.33;3.83;;;-2.20;99.90;;;;;;5103058;28;20534;-65
2021/12/22 11:26:58;;;;;;;8.53;4.37;;;-2.10;99.90;;;;;;5103664;28;20442;-65
2021/12/22 11:29:25;;;;;;;17.27;8.43;;;-2.10;99.90;;;;;;5104117;28;20518;-65
2021/12/22 11:31:53;;;;;;;6.13;3.77;;;-2.10;99.90;;;;;;5103965;28;20438;-65
2021/12/22 11:34:21;;;;;;;5.00;3.43;;;-2.00;99.90;;;;;;5103788;28;20509;-65
2021/12/22 11:36:50;;;;;;;13.07;4.70;;;-2.00;99.90;;;;;;5104922;28;20800;-64
2021/12/22 11:39:19;;;;;;;13.70;5.43;;;-1.90;99.90;;;;;;5103794;28;20454;-66
2021/12/22 11:41:55;;;;;;;10.00;5.37;;;-1.90;99.90;;;;;;5104348;28;20492;-66
2021/12/22 11:44:25;;;;;;;4.40;3.50;;;-1.80;99.90;;;;;;5103996;28;20473;-66
2021/12/22 11:46:54;;;;;;;8.20;3.30;;;-1.80;99.90;;;;;;5103853;28;20537;-65
2021/12/22 11:49:22;;;;;;;7.23;3.90;;;-1.70;99.90;;;;;;5103517;28;20457;-64
2021/12/22 11:51:49;;;;;;;8.87;4.47;;;-1.70;99.90;;;;;;5104615;28;20510;-64
2021/12/22 11:54:16;;;;;;;8.13;5.37;;;-1.70;99.90;;;;;;5103211;28;20446;-65
2021/12/22 11:56:46;;;;;;;6.13;3.93;;;-1.60;99.90;;;;;;5104562;28;20514;-64
2021/12/22 11:59:29;;;;;;;8.10;4.73;;;-1.60;99.90;;;;;;5104122;28;20522;-64
2021/12/22 12:02:25;;;;;;;11.00;5.53;;;-1.50;99.90;;;;;;5107915;28;20465;-64
2021/12/22 12:04:54;;;;;;;5.40;4.07;;;-1.50;99.90;;;;;;5107064;28;20585;-65
2021/12/22 12:07:41;;;;;;;5.93;3.20;;;-1.50;99.90;;;;;;5107985;28;20514;-64
2021/12/22 12:10:32;;;;;;;5.87;4.17;;;-1.50;99.90;;;;;;5108023;28;20453;-65
2021/12/22 12:13:04;;;;;;;4.77;2.87;;;-1.50;99.90;;;;;;5107563;28;20439;-64
2021/12/22 12:21:58;;;;;;;8.00;4.20;;;-1.40;99.90;;;;;;5108160;28;20398;-64
2021/12/22 12:24:41;;;;;;;8.07;4.43;;;-1.30;99.90;;;;;;5106220;28;20478;-64
2021/12/22 12:27:40;;;;;;;9.10;4.03;;;-1.30;99.90;;;;;;5107641;28;20426;-64
2021/12/22 12:30:10;;;;;;;7.87;4.30;;;-1.20;99.90;;;;;;5107708;28;20427;-65
2021/12/22 12:33:18;;;;;;;7.00;3.30;;;-1.20;99.90;;;;;;5107722;28;20438;-64
2021/12/22 12:35:57;;;;;;;8.93;4.13;;;-1.20;99.90;;;;;;5107469;28;20453;-64
2021/12/22 12:38:27;;;;;;;7.57;3.87;;;-1.20;99.90;;;;;;5106810;28;20453;-64
2021/12/22 12:41:11;;;;;;;7.67;3.53;;;-1.10;99.90;;;;;;5107815;28;20454;-64
2021/12/22 12:43:57;;;;;;;5.27;3.40;;;-1.10;99.90;;;;;;5107140;28;20446;-66
2021/12/22 12:46:50;;;;;;;6.97;4.13;;;-1.10;99.90;;;;;;5107201;28;20498;-65
2021/12/22 12:49:41;;;;;;;6.03;3.53;;;-1.10;99.90;;;;;;5104883;28;20541;-64
2021/12/22 12:52:26;;;;;;;7.83;4.10;;;-1.10;99.90;;;;;;5107505;28;20440;-64
2021/12/22 12:55:12;;;;;;;5.23;2.50;;;-1.00;99.90;;;;;;5105733;28;20892;-65
2021/12/22 12:57:40;;;;;;;7.70;3.47;;;-1.00;99.90;;;;;;5106897;28;20446;-64
2021/12/22 13:00:20;;;;;;;5.80;3.20;;;-1.00;99.90;;;;;;5105558;28;20442;-66
2021/12/22 13:02:47;;;;;;;4.53;2.73;;;-1.00;99.90;;;;;;5106573;28;20538;-65
2021/12/22 13:05:16;;;;;;;3.93;3.00;;;-0.90;99.90;;;;;;5106011;28;20554;-66
2021/12/22 13:07:45;;;;;;;6.77;4.17;;;-0.90;99.90;;;;;;5106482;28;20530;-64
2021/12/22 13:10:22;;;;;;;6.90;3.13;;;-0.90;99.90;;;;;;5105210;28;20453;-67
2021/12/22 13:13:12;;;;;;;7.07;3.07;;;-0.90;99.90;;;;;;5105862;28;20972;-68
2021/12/22 13:15:52;;;;;;;5.50;3.17;;;-0.80;99.90;;;;;;5106977;28;20567;-64
2021/12/22 13:18:23;;;;;;;7.60;4.70;;;-0.80;99.90;;;;;;5106340;28;20471;-67